Time;durP1;ratioP1;P1;durP2;ratioP2;P2;SDS_P1;SDS_P2;PMS_P1;PMS_P2;Temp;Humidity;BMP_temperature;BMP_pressure;BME280_temperature;BME280_humidity;BME280_pressure;Samples;Min_cycle;Max_cycle;Signal;HPM_P1;HPM_P2
2021/12/04 00:01:07;;;;;;;5.07;3.55;;;;;;;3.00;100.00;93881.13;4976954;28;20421;-86
2021/12/04 00:03:33;;;;;;;4.68;3.42;;;;;;;3.04;100.00;93881.72;4976031;28;20035;-86
2021/12/04 00:06:03;;;;;;;5.32;3.50;;;;;;;3.01;100.00;93885.31;4976279;28;20037;-84
2021/12/04 00:08:32;;;;;;;5.40;3.80;;;;;;;2.91;100.00;93873.13;4976542;28;20026;-84
2021/12/04 00:10:58;;;;;;;6.20;3.10;;;;;;;2.88;100.00;93864.78;4975152;28;20038;-84
2021/12/04 00:13:24;;;;;;;3.75;3.00;;;;;;;2.83;100.00;93862.00;4975825;28;20040;-85
2021/12/04 00:15:49;;;;;;;4.10;2.83;;;;;;;2.76;100.00;93859.63;4976258;28;20031;-85
2021/12/04 00:18:15;;;;;;;3.83;2.92;;;;;;;2.84;100.00;93871.53;4976199;28;20034;-85
2021/12/04 00:20:41;;;;;;;3.83;3.10;;;;;;;2.91;100.00;93883.88;4976774;28;20033;-85
2021/12/04 00:23:07;;;;;;;3.42;2.60;;;;;;;2.82;100.00;93876.56;4977092;28;20102;-85
2021/12/04 00:25:33;;;;;;;4.13;3.03;;;;;;;2.79;100.00;93866.75;4976266;28;20112;-85
2021/12/04 00:27:58;;;;;;;4.63;3.20;;;;;;;2.87;100.00;93868.66;4977132;28;20103;-84
2021/12/04 00:30:26;;;;;;;6.03;3.22;;;;;;;2.88;100.00;93872.84;4976777;28;20026;-85
2021/12/04 00:32:59;;;;;;;4.03;2.90;;;;;;;3.02;100.00;93868.03;4975995;28;20045;-85
2021/12/04 00:51:20;;;;;;;4.72;3.50;;;;;;;2.86;100.00;93877.91;4975706;28;20037;-83
2021/12/04 00:53:47;;;;;;;3.30;2.50;;;;;;;2.79;100.00;93872.84;4975230;28;20368;-84
2021/12/04 00:56:13;;;;;;;4.07;2.67;;;;;;;2.70;100.00;93867.53;4975604;28;20026;-84
2021/12/04 00:58:39;;;;;;;4.72;3.40;;;;;;;2.80;100.00;93869.00;4974956;28;20435;-85
2021/12/04 01:01:04;;;;;;;5.20;3.10;;;;;;;2.87;100.00;93868.66;5006861;28;20062;-85
2021/12/04 01:03:34;;;;;;;4.57;2.72;;;;;;;2.82;100.00;93861.25;4975027;28;20456;-84
2021/12/04 01:06:00;;;;;;;5.22;3.30;;;;;;;2.80;100.00;93852.91;5006646;28;20027;-86
2021/12/04 01:08:25;;;;;;;3.53;2.92;;;;;;;2.78;100.00;93849.94;4975183;28;20019;-85
2021/12/04 01:10:51;;;;;;;4.50;3.58;;;;;;;2.62;100.00;93842.22;4975726;28;20106;-85
2021/12/04 01:13:16;;;;;;;5.65;3.67;;;;;;;2.75;100.00;93829.38;4975272;28;20023;-84
2021/12/04 01:15:44;;;;;;;3.88;3.25;;;;;;;2.71;100.00;93831.50;4974601;28;20435;-84
2021/12/04 01:18:11;;;;;;;4.53;3.65;;;;;;;2.54;100.00;93823.78;4974575;28;20341;-85
2021/12/04 01:20:37;;;;;;;4.03;3.05;;;;;;;2.34;100.00;93823.53;4979014;28;20531;-83
2021/12/04 01:23:03;;;;;;;4.05;3.40;;;;;;;2.57;100.00;93816.78;5010416;28;20026;-83
2021/12/04 01:25:29;;;;;;;4.75;4.00;;;;;;;2.38;100.00;93818.03;4979110;28;20058;-84
2021/12/04 01:27:55;;;;;;;5.50;4.07;;;;;;;2.37;100.00;93822.63;4977797;28;20109;-85
2021/12/04 01:30:21;;;;;;;4.30;3.30;;;;;;;2.18;100.00;93800.50;4979516;28;20452;-85
2021/12/04 01:32:46;;;;;;;3.75;3.20;;;;;;;2.16;100.00;93797.53;4983890;28;20054;-85
2021/12/04 01:35:12;;;;;;;4.18;3.10;;;;;;;2.29;100.00;93805.41;4990750;28;20027;-84
2021/12/04 01:37:38;;;;;;;3.83;3.15;;;;;;;1.89;100.00;93809.75;4987892;28;20026;-84
2021/12/04 01:40:05;;;;;;;4.07;3.30;;;;;;;2.11;100.00;93806.16;4978846;28;20032;-83
2021/12/04 01:42:34;;;;;;;3.55;2.92;;;;;;;2.00;100.00;93814.66;5009885;28;20046;-84
2021/12/04 01:45:00;;;;;;;4.50;3.28;;;;;;;1.83;100.00;93823.00;5010476;28;20074;-84
2021/12/04 01:47:26;;;;;;;4.65;3.33;;;;;;;1.98;100.00;93822.41;4978037;28;20019;-84
2021/12/04 01:49:53;;;;;;;4.10;3.42;;;;;;;1.96;100.00;93814.78;4978209;28;20025;-83
2021/12/04 01:52:19;;;;;;;5.40;3.75;;;;;;;2.00;100.00;93820.00;4978272;28;20053;-84
2021/12/04 01:54:46;;;;;;;4.72;3.60;;;;;;;2.10;100.00;93826.09;4977822;28;20412;-84
2021/12/04 01:57:15;;;;;;;4.65;3.67;;;;;;;1.98;100.00;93825.81;5009591;28;20023;-83
2021/12/04 01:59:42;;;;;;;8.07;3.50;;;;;;;2.11;100.00;93814.94;4977832;28;20027;-84
2021/12/04 02:02:07;;;;;;;3.25;2.83;;;;;;;2.02;100.00;93815.69;4977886;28;20022;-83
2021/12/04 02:04:33;;;;;;;4.38;3.38;;;;;;;2.07;100.00;93811.66;4978623;28;20027;-84
2021/12/04 02:07:03;;;;;;;4.43;3.33;;;;;;;2.02;100.00;93814.97;4979542;28;20034;-84
2021/12/04 02:09:29;;;;;;;4.55;3.00;;;;;;;1.96;100.00;93827.44;4979728;28;20041;-84
2021/12/04 02:11:54;;;;;;;5.32;3.65;;;;;;;1.95;100.00;93828.63;4979441;28;20039;-84
2021/12/04 02:14:20;;;;;;;4.90;3.90;;;;;;;2.23;100.00;93831.31;4978521;28;20183;-84
2021/12/04 02:16:45;;;;;;;5.68;3.85;;;;;;;2.02;100.00;93825.69;4978229;28;20037;-84
2021/12/04 02:19:14;;;;;;;6.25;4.30;;;;;;;2.03;100.00;93817.19;4978943;28;20038;-84
2021/12/04 02:21:39;;;;;;;5.18;3.50;;;;;;;1.93;100.00;93806.94;4976958;28;20023;-83
2021/12/04 02:24:05;;;;;;;6.68;4.22;;;;;;;2.12;100.00;93811.06;4977809;28;20015;-82
2021/12/04 02:26:31;;;;;;;4.78;3.55;;;;;;;2.30;100.00;93810.31;4977435;28;20026;-82
2021/12/04 02:28:57;;;;;;;8.13;4.03;;;;;;;2.34;100.00;93812.84;4977573;28;20023;-83
2021/12/04 02:31:23;;;;;;;5.55;4.25;;;;;;;2.36;100.00;93807.78;5008746;28;20061;-83
2021/12/04 02:33:49;;;;;;;5.43;4.32;;;;;;;2.35;100.00;93811.66;4976893;28;20125;-83
2021/12/04 02:36:15;;;;;;;5.03;4.10;;;;;;;2.49;100.00;93812.94;4977107;28;20081;-83
2021/12/04 02:38:40;;;;;;;5.50;4.38;;;;;;;2.38;100.00;93802.72;4977813;28;20435;-82
2021/12/04 02:41:08;;;;;;;6.40;4.63;;;;;;;2.42;100.00;93811.31;4977820;28;20389;-83
2021/12/04 02:43:34;;;;;;;5.30;4.22;;;;;;;2.61;100.00;93808.63;4977727;28;20034;-83
2021/12/04 02:46:00;;;;;;;5.85;4.53;;;;;;;2.72;100.00;93811.53;4978030;28;20058;-83
2021/12/04 02:48:26;;;;;;;5.32;4.45;;;;;;;2.73;100.00;93815.72;4976857;28;20030;-83
2021/12/04 02:50:51;;;;;;;7.43;4.65;;;;;;;2.62;100.00;93807.41;4977975;28;20038;-83
2021/12/04 02:53:17;;;;;;;6.97;5.13;;;;;;;2.68;100.00;93802.91;4978119;28;20030;-84
2021/12/04 02:55:43;;;;;;;6.32;4.70;;;;;;;2.71;100.00;93810.06;4977732;28;20085;-84
2021/12/04 02:58:09;;;;;;;6.90;5.35;;;;;;;2.70;100.00;93798.59;4977560;28;20439;-84
2021/12/04 03:00:35;;;;;;;7.50;5.47;;;;;;;2.67;100.00;93796.06;4977556;28;20085;-83
2021/12/04 03:03:02;;;;;;;6.38;4.82;;;;;;;2.66;100.00;93783.88;4977245;28;20027;-84
2021/12/04 03:05:28;;;;;;;11.70;4.97;;;;;;;2.63;100.00;93798.16;4976657;28;20148;-85
2021/12/04 03:07:55;;;;;;;7.35;5.13;;;;;;;2.66;100.00;93797.28;4976744;28;20460;-84
2021/12/04 03:10:22;;;;;;;6.53;5.53;;;;;;;2.96;100.00;93792.84;4977030;28;20058;-84
2021/12/04 03:12:48;;;;;;;8.30;5.75;;;;;;;3.00;100.00;93796.09;4976753;28;20107;-85
2021/12/04 03:15:14;;;;;;;9.98;6.25;;;;;;;2.96;100.00;93805.50;4977003;28;20059;-86
2021/12/04 03:17:39;;;;;;;7.80;5.50;;;;;;;2.68;100.00;93802.91;4976553;28;20049;-85
2021/12/04 03:20:06;;;;;;;7.53;5.95;;;;;;;2.68;100.00;93798.28;4976406;28;20027;-85
2021/12/04 03:22:32;;;;;;;9.35;6.22;;;;;;;2.48;100.00;93800.75;4976295;28;20057;-84
2021/12/04 03:24:58;;;;;;;10.43;6.13;;;;;;;2.29;100.00;93795.44;4976726;28;20449;-84
2021/12/04 03:27:27;;;;;;;9.25;6.30;;;;;;;2.45;100.00;93790.94;5007891;28;20376;-82
2021/12/04 03:29:58;;;;;;;8.73;6.25;;;;;;;2.44;100.00;93800.16;4976098;28;20023;-85
2021/12/04 03:40:36;;;;;;;10.60;5.93;;;;;;;2.07;100.00;93822.38;4975106;28;20035;-85
2021/12/04 03:43:10;;;;;;;10.25;6.32;;;;;;;2.38;100.00;93810.75;4975801;28;20061;-86
2021/12/04 03:45:39;;;;;;;9.65;6.60;;;;;;;2.23;100.00;93823.28;4974986;28;20043;-85
2021/12/04 03:48:13;;;;;;;10.20;6.28;;;;;;;2.06;100.00;93826.25;4976102;28;20062;-85
2021/12/04 03:50:38;;;;;;;9.20;6.32;;;;;;;1.87;100.00;93820.19;4976053;28;20026;-85
2021/12/04 03:53:04;;;;;;;12.45;6.93;;;;;;;1.97;100.00;93812.88;4975639;28;20383;-85
2021/12/04 03:55:30;;;;;;;9.40;6.65;;;;;;;1.89;100.00;93817.03;4975662;28;20464;-84
2021/12/04 03:57:56;;;;;;;11.27;7.43;;;;;;;1.97;100.00;93818.22;4975602;28;20106;-85
2021/12/04 04:00:25;;;;;;;13.02;7.70;;;;;;;2.14;100.00;93827.44;4975644;28;20105;-85
2021/12/04 04:02:51;;;;;;;11.90;8.10;;;;;;;1.88;100.00;93821.63;4975639;28;20023;-85
2021/12/04 04:05:16;;;;;;;12.13;7.15;;;;;;;1.93;100.00;93828.34;4976163;28;20491;-85
2021/12/04 04:07:41;;;;;;;9.88;7.53;;;;;;;1.76;100.00;93830.56;4976749;28;20471;-84
2021/12/04 04:10:08;;;;;;;10.60;7.30;;;;;;;1.76;100.00;93825.97;4976248;28;20058;-85
2021/12/04 04:12:34;;;;;;;10.73;7.43;;;;;;;1.88;100.00;93824.31;4979200;28;20105;-85
2021/12/04 04:14:59;;;;;;;9.95;6.88;;;;;;;1.79;100.00;93833.09;4987547;28;20464;-86
2021/12/04 04:17:30;;;;;;;8.82;5.90;;;;;;;1.67;100.00;93823.28;4989052;28;20037;-85
2021/12/04 04:19:56;;;;;;;10.43;5.80;;;;;;;1.68;100.00;93832.81;4979582;28;20027;-85
2021/12/04 04:22:21;;;;;;;8.32;6.10;;;;;;;1.67;100.00;93840.06;4975862;28;20474;-85
2021/12/04 04:24:47;;;;;;;9.00;6.72;;;;;;;1.77;100.00;93835.50;4975604;28;20529;-85
2021/12/04 04:27:12;;;;;;;11.02;5.97;;;;;;;1.76;100.00;93834.00;4978580;28;20037;-85
2021/12/04 04:29:37;;;;;;;10.60;6.55;;;;;;;1.76;100.00;93841.25;4986795;28;20026;-85
2021/12/04 04:32:03;;;;;;;9.35;5.65;;;;;;;1.66;100.00;93843.19;4984452;28;20074;-85
2021/12/04 04:34:31;;;;;;;6.93;5.50;;;;;;;1.72;100.00;93844.09;4975951;28;20069;-85
2021/12/04 05:11:24;;;;;;;7.53;5.35;;;;;;;1.75;100.00;93875.31;4975278;28;20077;-83
2021/12/04 05:13:51;;;;;;;8.27;5.63;;;;;;;1.66;100.00;93862.69;4973410;28;20101;-84
2021/12/04 05:16:17;;;;;;;8.18;5.38;;;;;;;1.87;100.00;93868.34;4974652;28;20530;-84
2021/12/04 05:19:13;;;;;;;8.93;5.55;;;;;;;1.88;100.00;93864.47;4974408;28;20034;-84
2021/12/04 05:21:36;;;;;;;7.43;4.95;;;;;;;2.09;100.00;93852.13;4974808;28;20472;-86
2021/12/04 05:24:02;;;;;;;11.68;5.15;;;;;;;1.95;100.00;93853.47;5005842;28;20026;-85
2021/12/04 05:26:29;;;;;;;6.90;4.85;;;;;;;1.89;100.00;93857.94;4973333;28;20091;-85
2021/12/04 05:28:58;;;;;;;6.45;5.00;;;;;;;1.94;100.00;93853.94;4974561;28;20038;-85
2021/12/04 05:31:25;;;;;;;7.07;4.97;;;;;;;1.93;100.00;93855.09;4975055;28;20114;-85
2021/12/04 05:33:51;;;;;;;6.65;4.50;;;;;;;1.93;100.00;93855.09;4974419;28;20055;-86
2021/12/04 05:36:17;;;;;;;6.60;5.05;;;;;;;1.92;100.00;93858.97;4974470;28;20043;-86
2021/12/04 05:38:43;;;;;;;7.65;5.22;;;;;;;1.84;100.00;93851.25;4974519;28;20110;-85
2021/12/04 05:41:09;;;;;;;10.80;5.38;;;;;;;1.77;100.00;93858.81;4973601;28;20444;-85
2021/12/04 05:43:35;;;;;;;7.88;5.40;;;;;;;1.78;100.00;93855.69;5006188;28;20062;-87
2021/12/04 05:46:11;;;;;;;7.25;5.13;;;;;;;1.80;100.00;93864.03;4974473;28;20030;-84
2021/12/04 05:48:51;;;;;;;8.98;5.90;;;;;;;1.98;100.00;93857.19;4974845;28;20085;-83
2021/12/04 05:56:16;;;;;;;10.35;6.10;;;;;;;2.30;100.00;93860.44;4974915;28;20452;-84
2021/12/04 05:58:42;;;;;;;8.73;6.05;;;;;;;2.22;100.00;93865.34;4975657;28;20038;-84
2021/12/04 06:01:08;;;;;;;11.68;6.72;;;;;;;2.31;100.00;93867.28;4975924;28;20027;-86
2021/12/04 06:03:34;;;;;;;9.32;6.60;;;;;;;2.36;100.00;93866.72;4974769;28;20027;-85
2021/12/04 06:06:01;;;;;;;9.45;6.95;;;;;;;2.35;100.00;93867.88;4977846;28;20053;-85
2021/12/04 06:08:26;;;;;;;10.85;6.88;;;;;;;2.32;100.00;93880.25;4978087;28;20030;-85
2021/12/04 06:10:53;;;;;;;10.18;7.22;;;;;;;2.23;100.00;93874.16;4979545;28;20083;-84
2021/12/04 06:13:19;;;;;;;13.20;8.27;;;;;;;2.48;100.00;93881.09;4982429;28;20146;-83
2021/12/04 06:15:44;;;;;;;12.48;8.05;;;;;;;2.51;100.00;93885.59;4992760;28;20031;-85
2021/12/04 06:18:10;;;;;;;13.48;8.82;;;;;;;2.40;100.00;93878.00;4996727;28;20086;-84
2021/12/04 06:23:22;;;;;;;11.98;8.75;;;;;;;2.34;100.00;93871.75;4996472;28;20037;-83
2021/12/04 06:25:48;;;;;;;12.85;8.55;;;;;;;2.22;100.00;93875.34;5029322;28;20098;-83
2021/12/04 06:28:14;;;;;;;17.55;10.13;;;;;;;2.21;100.00;93885.31;4996426;28;20034;-80
2021/12/04 06:30:41;;;;;;;17.40;9.90;;;;;;;2.26;100.00;93889.31;4986100;28;20035;-84
2021/12/04 06:33:09;;;;;;;15.10;7.97;;;;;;;2.22;100.00;93886.03;5010803;28;20086;-86
2021/12/04 06:35:39;;;;;;;13.63;7.22;;;;;;;2.00;100.00;93886.94;4978791;28;20019;-85
2021/12/04 06:38:05;;;;;;;11.27;7.70;;;;;;;1.98;100.00;93890.06;4980212;28;20034;-83
2021/12/04 06:40:31;;;;;;;14.93;7.60;;;;;;;2.09;100.00;93881.59;4980648;28;20030;-83
2021/12/04 06:42:59;;;;;;;11.40;7.38;;;;;;;1.97;100.00;93893.91;4978667;28;20033;-82
2021/12/04 06:45:25;;;;;;;9.98;7.05;;;;;;;2.10;100.00;93893.78;4977692;28;20456;-83
2021/12/04 06:47:59;;;;;;;13.88;7.05;;;;;;;1.96;100.00;93897.03;4975986;28;20046;-81
2021/12/04 06:53:20;;;;;;;12.88;8.00;;;;;;;2.37;100.00;93900.31;4977316;28;20032;-82
2021/12/04 06:55:50;;;;;;;13.10;7.65;;;;;;;2.39;100.00;93903.28;4976946;28;20380;-83
2021/12/04 06:58:16;;;;;;;11.35;7.22;;;;;;;2.52;100.00;93908.47;4976724;28;20096;-82
2021/12/04 07:00:43;;;;;;;12.88;8.70;;;;;;;2.34;100.00;93903.88;4975947;28;20030;-81
2021/12/04 07:03:08;;;;;;;12.07;8.10;;;;;;;2.55;100.00;93907.59;4981024;28;20084;-83
2021/12/04 07:05:34;;;;;;;12.27;8.02;;;;;;;2.54;100.00;93901.50;4977107;28;20105;-79
2021/12/04 07:07:59;;;;;;;11.82;8.23;;;;;;;2.39;100.00;93900.63;4976859;28;20092;-86
2021/12/04 07:10:25;;;;;;;16.95;10.05;;;;;;;2.61;100.00;93910.44;5008654;28;20026;-83
2021/12/04 07:12:51;;;;;;;11.50;7.90;;;;;;;2.33;100.00;93902.41;4976528;28;20113;-80
2021/12/04 07:15:16;;;;;;;13.52;9.20;;;;;;;2.31;100.00;93910.16;4976085;28;20054;-79
2021/12/04 07:17:42;;;;;;;13.50;8.35;;;;;;;2.31;100.00;93923.53;4976104;28;20114;-78
2021/12/04 07:20:10;;;;;;;16.23;9.95;;;;;;;2.30;100.00;93924.72;4977940;28;20058;-83
2021/12/04 07:22:36;;;;;;;17.63;9.63;;;;;;;2.24;100.00;93915.81;4989237;28;20023;-80
2021/12/04 07:25:03;;;;;;;19.58;10.48;;;;;;;2.34;100.00;93925.31;4990883;28;20041;-80
2021/12/04 07:27:29;;;;;;;14.50;10.18;;;;;;;2.37;100.00;93919.06;4979388;28;20038;-81
2021/12/04 07:29:55;;;;;;;18.40;11.13;;;;;;;2.56;100.00;93921.75;4979151;28;20023;-80
2021/12/04 07:32:21;;;;;;;14.90;10.27;;;;;;;2.41;100.00;93919.66;4977912;28;20057;-80
2021/12/04 07:34:47;;;;;;;16.15;9.95;;;;;;;2.40;100.00;93910.16;4978132;28;20054;-80
2021/12/04 07:37:13;;;;;;;15.20;10.00;;;;;;;2.59;100.00;93913.56;5009737;28;20034;-80
2021/12/04 07:39:39;;;;;;;15.68;10.85;;;;;;;2.87;100.00;93906.19;4977298;28;20038;-79
2021/12/04 07:42:05;;;;;;;18.02;10.23;;;;;;;3.13;100.00;93897.03;5007327;28;20019;-80
2021/12/04 07:44:30;;;;;;;13.98;9.73;;;;;;;3.14;100.00;93885.84;4975833;28;20022;-80
2021/12/04 07:46:57;;;;;;;14.43;8.48;;;;;;;3.31;100.00;93878.22;4974782;28;20089;-80
2021/12/04 07:49:23;;;;;;;12.88;8.48;;;;;;;3.25;100.00;93879.28;4975729;28;20034;-81
2021/12/04 07:51:50;;;;;;;13.48;8.80;;;;;;;3.48;100.00;93875.88;4976446;28;20031;-81
2021/12/04 07:54:16;;;;;;;14.18;9.18;;;;;;;3.73;100.00;93863.22;4976381;28;20049;-80
2021/12/04 07:56:41;;;;;;;14.30;9.13;;;;;;;4.04;100.00;93857.47;4976218;28;20118;-80
2021/12/04 07:59:07;;;;;;;14.20;9.70;;;;;;;4.14;100.00;93850.09;4976127;28;20132;-81
2021/12/04 08:01:32;;;;;;;13.68;9.30;;;;;;;4.28;100.00;93855.94;4974962;28;20039;-82
2021/12/04 08:03:58;;;;;;;12.82;9.48;;;;;;;4.15;100.00;93858.91;4975795;28;20015;-82
2021/12/04 08:06:23;;;;;;;12.80;8.32;;;;;;;4.22;100.00;93851.22;4975514;28;20105;-80
2021/12/04 08:08:49;;;;;;;14.38;9.48;;;;;;;4.47;100.00;93857.28;4975967;28;20022;-81
2021/12/04 08:11:14;;;;;;;14.25;9.82;;;;;;;4.46;100.00;93844.28;4976318;28;20089;-84
2021/12/04 08:13:40;;;;;;;14.50;10.05;;;;;;;4.51;100.00;93846.34;4975379;28;20026;-83
2021/12/04 08:16:06;;;;;;;16.00;10.13;;;;;;;4.50;100.00;93856.34;4975478;28;20029;-82
2021/12/04 08:18:31;;;;;;;14.38;8.93;;;;;;;4.37;100.00;93837.78;4974662;28;20038;-81
2021/12/04 08:20:58;;;;;;;13.55;9.18;;;;;;;4.13;100.00;93854.00;4975995;28;20070;-79
2021/12/04 08:23:24;;;;;;;12.60;9.15;;;;;;;4.37;100.00;93861.25;4975386;28;20511;-80
2021/12/04 08:25:49;;;;;;;15.57;9.07;;;;;;;4.22;100.00;93863.91;5006670;28;20025;-78
2021/12/04 08:28:15;;;;;;;17.17;11.15;;;;;;;4.11;100.00;93864.44;5006533;28;20027;-81
2021/12/04 08:30:41;;;;;;;14.70;9.82;;;;;;;4.05;100.00;93866.28;4975286;28;20101;-78
2021/12/04 08:33:11;;;;;;;14.77;9.88;;;;;;;4.27;100.00;93870.56;4974860;28;20471;-79
2021/12/04 08:35:40;;;;;;;16.55;10.15;;;;;;;3.99;100.00;93868.84;4974988;28;20361;-79
2021/12/04 08:38:08;;;;;;;14.65;9.60;;;;;;;4.39;100.00;93866.88;4974862;28;20022;-77
2021/12/04 08:40:34;;;;;;;14.45;10.00;;;;;;;4.47;100.00;93851.16;4975361;28;20102;-79
2021/12/04 08:42:59;;;;;;;14.88;9.77;;;;;;;4.65;100.00;93850.97;4974702;28;20037;-78
2021/12/04 08:45:26;;;;;;;15.35;10.13;;;;;;;4.31;100.00;93850.41;4974885;28;20044;-80
2021/12/04 08:47:53;;;;;;;16.20;11.15;;;;;;;4.20;100.00;93845.56;4974753;28;20385;-80
2021/12/04 08:50:22;;;;;;;17.77;10.70;;;;;;;4.05;100.00;93834.78;4975496;28;20058;-80
2021/12/04 08:52:48;;;;;;;18.20;10.73;;;;;;;3.98;100.00;93840.53;4974728;28;20019;-79
2021/12/04 08:55:15;;;;;;;17.33;11.57;;;;;;;4.52;100.00;93832.44;4973526;28;20089;-78
2021/12/04 08:57:40;;;;;;;16.63;11.88;;;;;;;4.75;100.00;93838.19;4974688;28;20142;-80
2021/12/04 09:00:10;;;;;;;18.48;11.52;;;;;;;4.91;100.00;93824.25;4976125;28;20480;-82
2021/12/04 09:02:35;;;;;;;16.23;11.35;;;;;;;4.85;100.00;93831.50;4978027;28;20038;-81
2021/12/04 09:05:02;;;;;;;18.25;11.55;;;;;;;5.12;100.00;93843.16;4978048;28;20023;-82
2021/12/04 09:07:28;;;;;;;17.80;12.02;;;;;;;5.18;100.00;93846.69;4974881;28;20361;-81
2021/12/04 09:09:55;;;;;;;16.80;11.55;;;;;;;5.04;100.00;93839.34;4974607;28;20096;-81
2021/12/04 09:12:24;;;;;;;16.30;10.68;;;;;;;5.03;100.00;93835.94;4974400;28;20019;-79
2021/12/04 09:14:50;;;;;;;15.65;10.43;;;;;;;4.72;100.00;93839.84;4974402;28;20027;-80
2021/12/04 09:17:20;;;;;;;14.25;9.57;;;;;;;4.74;100.00;93837.44;4974512;28;20058;-79
2021/12/04 09:19:46;;;;;;;16.58;11.18;;;;;;;4.63;100.00;93831.16;4975002;28;20105;-81
2021/12/04 09:22:16;;;;;;;17.10;10.43;;;;;;;4.49;100.00;93838.75;4975031;28;20434;-80
2021/12/04 09:24:46;;;;;;;19.80;11.40;;;;;;;4.50;100.00;93840.22;4974895;28;20029;-84
2021/12/04 09:27:30;;;;;;;19.42;11.30;;;;;;;4.35;100.00;93840.22;4974712;28;20023;-80
2021/12/04 09:30:14;;;;;;;15.55;10.50;;;;;;;4.25;100.00;93846.13;4974716;28;20122;-79
2021/12/04 10:16:38;;;;;;;18.05;11.55;;;;;;;4.08;100.00;93838.50;4979441;28;20038;-76
2021/12/04 10:32:37;;;;;;;14.60;9.57;;;;;;;5.47;100.00;93817.44;4977136;28;20108;-87
2021/12/04 10:35:19;;;;;;;15.18;10.68;;;;;;;5.18;100.00;93811.69;4977549;28;20027;-79
2021/12/04 10:38:24;;;;;;;18.77;11.82;;;;;;;5.30;100.00;93803.78;4977509;28;20050;-78
2021/12/04 10:40:51;;;;;;;21.17;14.52;;;;;;;5.24;100.00;93801.75;4977424;28;20089;-77
2021/12/04 10:43:26;;;;;;;21.98;14.95;;;;;;;5.53;100.00;93805.53;4977677;28;20408;-78
2021/12/04 10:45:57;;;;;;;22.10;14.32;;;;;;;5.17;100.00;93809.47;4977190;28;20081;-76
2021/12/04 10:48:28;;;;;;;25.35;13.93;;;;;;;5.71;100.00;93814.56;5008386;28;20109;-76
2021/12/04 10:53:49;;;;;;;20.13;12.98;;;;;;;5.38;100.00;93808.28;4977028;28;20030;-68
2021/12/04 10:59:31;;;;;;;19.85;13.02;;;;;;;6.22;100.00;93813.22;4977304;28;20117;-67
2021/12/04 11:02:06;;;;;;;24.95;14.32;;;;;;;6.31;100.00;93820.38;4976341;28;20102;-67
2021/12/04 11:04:47;;;;;;;24.27;15.07;;;;;;;6.56;100.00;93818.19;4976917;28;20408;-66
2021/12/04 11:38:16;;;;;;;22.65;14.15;;;;;;;5.18;100.00;93803.63;4976725;28;20478;-81
2021/12/04 11:43:15;;;;;;;20.20;13.27;;;;;;;5.35;100.00;93800.41;4977616;28;20128;-84
2021/12/04 11:48:32;;;;;;;19.45;13.75;;;;;;;5.52;100.00;93787.16;4976604;28;20454;-81
2021/12/04 11:50:59;;;;;;;24.48;15.15;;;;;;;5.20;100.00;93787.75;4976259;28;20033;-78
2021/12/04 11:53:25;;;;;;;20.05;13.60;;;;;;;5.02;100.00;93796.06;4975710;28;20403;-80
2021/12/04 11:55:51;;;;;;;19.75;13.88;;;;;;;4.74;100.00;93788.31;4975913;28;20026;-83
2021/12/04 11:58:28;;;;;;;18.63;13.38;;;;;;;5.02;100.00;93793.38;4975614;28;20031;-82
2021/12/04 12:00:58;;;;;;;19.48;13.45;;;;;;;5.27;100.00;93794.69;4975840;28;20464;-81
2021/12/04 12:03:27;;;;;;;23.55;14.82;;;;;;;5.59;100.00;93787.53;4975060;28;20053;-80
2021/12/04 12:06:05;;;;;;;21.60;14.82;;;;;;;5.27;100.00;93788.56;4975878;28;20031;-80
2021/12/04 12:08:38;;;;;;;24.17;14.15;;;;;;;5.20;100.00;93795.81;4975581;28;20023;-80
2021/12/04 12:11:27;;;;;;;22.40;13.15;;;;;;;5.17;100.00;93788.69;4976424;28;20030;-83
2021/12/04 12:14:03;;;;;;;83.90;53.53;;;;;;;5.97;100.00;93798.47;4975754;28;20034;-75
2021/12/04 12:16:35;;;;;;;79.70;52.80;;;;;;;5.86;100.00;93793.72;5006898;28;20026;-76
2021/12/04 12:19:09;;;;;;;22.45;14.40;;;;;;;5.42;100.00;93783.88;4976166;28;20395;-78
2021/12/04 12:21:55;;;;;;;15.90;11.98;;;;;;;5.48;100.00;93798.16;4975724;28;20038;-81
2021/12/04 12:38:40;;;;;;;18.23;10.77;;;;;;;5.19;100.00;93802.41;4975384;28;20100;-82
2021/12/04 12:41:26;;;;;;;21.88;12.20;;;;;;;5.11;100.00;93795.19;5006625;28;20030;-78
2021/12/04 12:44:09;;;;;;;15.48;11.30;;;;;;;5.13;100.00;93798.19;5006339;28;20372;-77
2021/12/04 12:46:45;;;;;;;17.83;11.18;;;;;;;5.34;100.00;93805.03;4974883;28;20057;-75
2021/12/04 12:49:22;;;;;;;22.90;12.13;;;;;;;5.34;100.00;93793.56;4974585;28;20022;-77
2021/12/04 12:51:58;;;;;;;19.73;14.30;;;;;;;5.39;100.00;93790.94;4974389;28;20034;-78
2021/12/04 12:54:38;;;;;;;23.65;15.98;;;;;;;5.63;100.00;93791.94;5005895;28;20038;-69
2021/12/04 12:57:09;;;;;;;22.70;13.50;;;;;;;5.30;100.00;93796.44;4974477;28;20041;-75
2021/12/04 13:13:53;;;;;;;27.25;15.77;;;;;;;5.35;100.00;93811.19;4979775;28;20037;-76
2021/12/04 13:16:30;;;;;;;26.08;16.30;;;;;;;5.27;100.00;93818.16;4975955;28;20023;-77
2021/12/04 13:18:59;;;;;;;31.00;16.40;;;;;;;5.30;100.00;93817.97;4975248;28;20027;-81
2021/12/04 13:21:26;;;;;;;22.90;15.52;;;;;;;5.37;100.00;93816.81;4974383;28;20031;-77
2021/12/04 13:23:55;;;;;;;35.05;16.80;;;;;;;5.37;100.00;93814.91;4975263;28;20026;-76
2021/12/04 13:26:27;;;;;;;25.70;16.73;;;;;;;5.36;100.00;93815.38;4974160;28;20050;-77
2021/12/04 13:28:53;;;;;;;30.92;15.30;;;;;;;5.56;100.00;93801.94;4974932;28;20026;-76
2021/12/04 13:31:20;;;;;;;30.23;19.08;;;;;;;5.69;100.00;93806.22;4974653;28;20037;-82
2021/12/04 13:33:50;;;;;;;28.17;18.42;;;;;;;5.77;100.00;93812.69;4974001;28;20377;-76
2021/12/04 13:36:25;;;;;;;30.05;18.05;;;;;;;5.48;100.00;93817.00;4974502;28;20031;-77
2021/12/04 13:39:01;;;;;;;28.38;17.52;;;;;;;5.48;100.00;93818.94;4974741;28;20035;-76
2021/12/04 13:41:28;;;;;;;26.75;16.45;;;;;;;5.53;100.00;93807.50;4974416;28;20088;-77
2021/12/04 13:43:56;;;;;;;28.00;18.17;;;;;;;5.32;100.00;93806.75;4974692;28;20177;-80
2021/12/04 13:46:23;;;;;;;31.77;19.20;;;;;;;5.66;100.00;93809.84;4975026;28;20046;-76
2021/12/04 13:48:50;;;;;;;26.27;16.20;;;;;;;5.40;100.00;93805.16;4974176;28;20043;-77
2021/12/04 13:51:16;;;;;;;26.95;17.75;;;;;;;5.44;100.00;93805.69;4974050;28;20114;-76
2021/12/04 13:53:45;;;;;;;28.33;17.63;;;;;;;5.02;100.00;93801.44;4974295;28;20023;-79
2021/12/04 13:56:17;;;;;;;29.25;18.15;;;;;;;5.54;100.00;93795.53;4974112;28;20023;-80
2021/12/04 13:58:43;;;;;;;;;;;;;;;5.11;100.00;93797.88;4974777;28;20042;-82
2021/12/04 14:01:08;;;;;;;33.47;18.38;;;;;;;4.90;100.00;93801.25;5006106;28;20009;-82
2021/12/04 14:03:34;;;;;;;33.30;19.25;;;;;;;4.85;100.00;93793.88;4973711;28;20063;-78
2021/12/04 14:06:00;;;;;;;30.58;19.50;;;;;;;4.91;100.00;93792.00;4973558;28;20030;-77
2021/12/04 14:08:25;;;;;;;32.33;19.55;;;;;;;4.82;100.00;93783.31;4973832;28;20034;-79
2021/12/04 14:10:51;;;;;;;33.03;21.40;;;;;;;4.79;100.00;93776.91;4974251;28;20030;-81
2021/12/04 14:13:23;;;;;;;30.77;19.33;;;;;;;4.95;100.00;93785.69;4973974;28;20027;-77
2021/12/04 14:15:50;;;;;;;31.10;18.67;;;;;;;5.12;100.00;93775.91;4974074;28;20393;-78
2021/12/04 14:18:18;;;;;;;33.17;20.17;;;;;;;5.03;100.00;93781.38;4973785;28;20046;-77
2021/12/04 14:20:47;;;;;;;34.00;20.88;;;;;;;5.22;100.00;93779.97;4973611;28;20405;-78
2021/12/04 14:23:13;;;;;;;34.63;21.25;;;;;;;5.17;100.00;93780.63;4974342;28;20038;-76
2021/12/04 14:25:45;;;;;;;40.75;22.23;;;;;;;5.09;100.00;93774.16;4974760;28;20456;-74
2021/12/04 14:28:15;;;;;;;42.63;24.23;;;;;;;5.21;100.00;93770.41;4976700;28;20130;-76
2021/12/04 14:30:47;;;;;;;41.20;25.13;;;;;;;4.68;100.00;93771.38;4977156;28;20026;-77
2021/12/04 14:33:15;;;;;;;;;;;;;;;4.33;100.00;93774.72;4977569;28;20404;-78
2021/12/04 14:35:45;;;;;;;41.40;23.65;;;;;;;4.23;100.00;93772.13;4977064;28;19914;-77
2021/12/04 14:38:14;;;;;;;40.30;23.88;;;;;;;4.56;100.00;93773.88;4977110;28;20452;-76
2021/12/04 14:40:42;;;;;;;40.63;22.60;;;;;;;4.71;100.00;93789.25;4977385;28;20110;-77
2021/12/04 14:43:13;;;;;;;36.97;21.70;;;;;;;4.54;100.00;93784.34;4976990;28;20027;-77
2021/12/04 14:45:41;;;;;;;38.20;21.20;;;;;;;4.56;100.00;93783.88;4977206;28;20033;-76
2021/12/04 14:48:24;;;;;;;39.10;23.13;;;;;;;4.31;100.00;93785.16;4977251;28;20027;-76